Ivo

Ivo

Skill-test PPL SEP(A)

Een prachtig examen op een bewolkte dag. METAR EHAM 031525Z 01009KT 340V050 9999 FEW016 21/17 Q1017 NOSIG= Dus tussen én boven de wolken (VFR on top) het airwork gedaan. De zenuwen te baas en gewoon doen alsof het een les is. Wijze woorden van het thuisfront hebben geholpen.

2018-09-04T10:27:24+00:00